createdAt,value
2017-12-10T00:00:46.444Z,91.40
2017-12-10T00:03:14.717Z,91.40
2017-12-10T00:05:42.184Z,91.30
2017-12-10T00:08:10.460Z,91.60
2017-12-10T00:10:38.728Z,91.40
2017-12-10T00:13:06.971Z,91.50
2017-12-10T00:15:34.434Z,91.50
2017-12-10T00:18:01.918Z,91.30
2017-12-10T00:20:29.484Z,91.30
2017-12-10T00:22:57.735Z,91.40
2017-12-10T00:25:25.225Z,91.30
2017-12-10T00:27:53.453Z,91.40
2017-12-10T00:30:20.913Z,91.40
2017-12-10T00:32:48.395Z,91.40
2017-12-10T00:35:15.862Z,91.50
2017-12-10T00:37:44.123Z,91.60
2017-12-10T00:40:11.591Z,91.60
2017-12-10T00:42:39.860Z,91.20
2017-12-10T00:45:07.422Z,91.20
2017-12-10T00:47:35.699Z,91.40
2017-12-10T00:50:03.162Z,91.30
2017-12-10T00:52:31.402Z,91.30
2017-12-10T00:54:58.988Z,91.30
2017-12-10T00:57:27.230Z,91.50
2017-12-10T00:59:54.707Z,91.40
2017-12-10T01:02:22.164Z,91.30
2017-12-10T01:04:49.731Z,91.40
2017-12-10T01:07:17.191Z,91.30
2017-12-10T01:09:45.430Z,91.40
2017-12-10T01:12:12.923Z,91.40
2017-12-10T01:14:40.421Z,91.40
2017-12-10T01:17:07.930Z,91.80
2017-12-10T01:19:35.393Z,91.30
2017-12-10T01:22:02.848Z,91.30
2017-12-10T01:24:30.304Z,91.40
2017-12-10T01:26:57.854Z,91.10
2017-12-10T01:29:25.312Z,91.10
2017-12-10T01:31:52.872Z,91.00
2017-12-10T01:34:21.111Z,91.10
2017-12-10T01:36:48.620Z,91.10
2017-12-10T01:39:16.838Z,91.40
2017-12-10T01:41:44.332Z,91.30
2017-12-10T01:44:11.800Z,91.10
2017-12-10T01:46:39.256Z,91.20
2017-12-10T01:49:06.712Z,90.90
2017-12-10T01:51:34.967Z,91.10
2017-12-10T01:54:02.416Z,91.10
2017-12-10T01:56:29.945Z,91.10
2017-12-10T01:58:57.453Z,91.20
2017-12-10T02:01:25.006Z,91.10
2017-12-10T02:03:52.463Z,91.00
2017-12-10T02:06:19.929Z,90.70
2017-12-10T02:08:47.482Z,90.70
2017-12-10T02:11:14.931Z,90.90
2017-12-10T02:13:42.413Z,90.60
2017-12-10T02:16:10.636Z,90.90
2017-12-10T02:18:38.128Z,90.90
2017-12-10T02:21:05.596Z,90.70
2017-12-10T02:23:33.856Z,90.40
2017-12-10T02:26:01.329Z,90.30
2017-12-10T02:28:29.582Z,90.30
2017-12-10T02:30:57.041Z,90.30
2017-12-10T02:33:24.611Z,90.10
2017-12-10T02:35:52.077Z,89.50
2017-12-10T02:38:20.304Z,89.20
2017-12-10T02:40:47.778Z,89.20
2017-12-10T02:43:15.306Z,89.30
2017-12-10T02:45:42.773Z,88.00
2017-12-10T02:48:10.246Z,87.50
2017-12-10T02:50:37.726Z,87.90
2017-12-10T02:53:05.190Z,87.70
2017-12-10T02:55:35.285Z,86.90
2017-12-10T02:58:02.758Z,86.90
2017-12-10T03:00:30.234Z,87.50
2017-12-10T03:02:58.476Z,87.00
2017-12-10T03:05:26.057Z,86.90
2017-12-10T03:07:53.504Z,87.10
2017-12-10T03:10:20.977Z,86.10
2017-12-10T03:12:49.225Z,85.90
2017-12-10T03:15:16.814Z,85.90
2017-12-10T03:17:45.035Z,86.20
2017-12-10T03:20:12.517Z,86.00
2017-12-10T03:22:39.972Z,86.30
2017-12-10T03:25:07.433Z,84.40
2017-12-10T03:27:34.896Z,83.30
2017-12-10T03:30:02.365Z,85.20
2017-12-10T03:32:30.648Z,84.90
2017-12-10T03:34:58.932Z,84.80
2017-12-10T03:37:26.472Z,84.60
2017-12-10T03:39:54.718Z,83.70
2017-12-10T03:42:22.239Z,83.60
2017-12-10T03:44:49.640Z,82.40
2017-12-10T03:47:17.209Z,83.40
2017-12-10T03:49:44.715Z,83.50
2017-12-10T03:52:12.228Z,82.60
2017-12-10T03:54:39.684Z,81.60
2017-12-10T03:57:07.157Z,82.60
2017-12-10T03:59:35.376Z,80.90
2017-12-10T04:02:02.861Z,80.80
2017-12-10T04:04:30.318Z,82.20
2017-12-10T04:06:57.768Z,81.10
2017-12-10T04:09:25.229Z,80.50
2017-12-10T04:11:52.676Z,79.40
2017-12-10T04:14:20.346Z,80.90
2017-12-10T04:16:47.796Z,79.10
2017-12-10T04:19:15.252Z,79.80
2017-12-10T04:21:42.732Z,81.20
2017-12-10T04:24:10.200Z,78.50
2017-12-10T04:26:38.467Z,79.70
2017-12-10T04:29:05.909Z,79.60
2017-12-10T04:31:33.365Z,79.00
2017-12-10T04:34:00.815Z,78.40
2017-12-10T04:36:28.277Z,78.30
2017-12-10T04:38:57.268Z,78.50
2017-12-10T04:41:24.724Z,78.50
2017-12-10T04:43:52.299Z,77.50
2017-12-10T04:46:19.753Z,78.10
2017-12-10T04:48:47.251Z,78.30
2017-12-10T04:51:14.691Z,78.10
2017-12-10T04:53:42.186Z,77.80
2017-12-10T04:56:09.659Z,78.30
2017-12-10T04:58:37.121Z,77.60
2017-12-10T05:01:05.350Z,76.90
2017-12-10T05:03:32.852Z,76.90
2017-12-10T05:06:01.129Z,78.00
2017-12-10T05:08:28.689Z,78.00
2017-12-10T05:10:56.150Z,78.00
2017-12-10T05:13:23.709Z,77.30
2017-12-10T05:15:51.164Z,78.20
2017-12-10T05:18:18.623Z,77.60
2017-12-10T05:20:46.078Z,77.50
2017-12-10T05:23:13.529Z,78.40
2017-12-10T05:25:40.985Z,78.10
2017-12-10T05:28:08.445Z,77.80
2017-12-10T05:30:35.900Z,77.80
2017-12-10T05:33:03.356Z,77.80
2017-12-10T05:35:30.917Z,77.50
2017-12-10T05:37:58.372Z,77.50
2017-12-10T05:40:25.887Z,77.10
2017-12-10T05:42:53.331Z,77.10
2017-12-10T05:45:20.817Z,78.00
2017-12-10T05:47:48.301Z,77.00
2017-12-10T05:50:15.756Z,77.60
2017-12-10T05:52:43.216Z,77.40
2017-12-10T05:55:10.673Z,77.40
2017-12-10T05:57:38.132Z,77.00
2017-12-10T06:00:05.686Z,77.70
2017-12-10T06:02:33.150Z,77.40
2017-12-10T06:05:00.600Z,77.30
2017-12-10T06:07:28.156Z,76.80
2017-12-10T06:09:55.613Z,77.50
2017-12-10T06:12:23.092Z,77.50
2017-12-10T06:14:51.352Z,78.00
2017-12-10T06:17:18.806Z,77.30
2017-12-10T06:19:46.264Z,76.40
2017-12-10T06:22:13.732Z,77.50
2017-12-10T06:24:41.992Z,77.30
2017-12-10T06:27:09.449Z,77.30
2017-12-10T06:29:36.909Z,77.50
2017-12-10T06:32:04.361Z,77.10
2017-12-10T06:34:31.912Z,76.70
2017-12-10T06:36:59.381Z,76.30
2017-12-10T06:39:26.837Z,76.40
2017-12-10T06:41:54.294Z,77.60
2017-12-10T06:44:22.515Z,77.40
2017-12-10T06:46:50.157Z,77.40
2017-12-10T06:49:17.620Z,77.50
2017-12-10T06:51:45.064Z,76.50
2017-12-10T06:54:13.305Z,77.30
2017-12-10T06:56:40.769Z,77.20
2017-12-10T06:59:08.233Z,76.90
2017-12-10T07:01:35.698Z,76.10
2017-12-10T07:04:03.924Z,76.90
2017-12-10T07:06:31.384Z,76.80
2017-12-10T07:08:58.929Z,76.50
2017-12-10T07:11:26.392Z,76.80
2017-12-10T07:13:53.846Z,76.70
2017-12-10T07:16:21.358Z,76.90
2017-12-10T07:18:48.804Z,76.70
2017-12-10T07:21:16.273Z,76.90
2017-12-10T07:23:44.526Z,76.70
2017-12-10T07:26:12.745Z,75.70
2017-12-10T07:28:40.318Z,75.70
2017-12-10T07:31:07.824Z,76.20
2017-12-10T07:33:37.297Z,76.00
2017-12-10T07:36:04.829Z,76.00
2017-12-10T07:38:32.403Z,75.60
2017-12-10T07:40:59.848Z,75.60
2017-12-10T07:43:27.312Z,75.60
2017-12-10T07:45:54.764Z,76.30
2017-12-10T07:48:22.220Z,75.50
2017-12-10T07:50:49.673Z,76.10
2017-12-10T07:53:17.141Z,75.70
2017-12-10T07:55:44.598Z,76.60
2017-12-10T07:58:12.054Z,76.10
2017-12-10T08:00:39.541Z,76.10
2017-12-10T08:03:06.992Z,75.90
2017-12-10T08:05:34.445Z,75.40
2017-12-10T08:08:01.898Z,75.50
2017-12-10T08:10:29.353Z,75.10
2017-12-10T08:12:56.804Z,76.10
2017-12-10T08:15:24.295Z,75.90
2017-12-10T08:17:51.754Z,76.30
2017-12-10T08:20:19.305Z,75.50
2017-12-10T08:22:46.749Z,75.40
2017-12-10T08:25:14.204Z,75.00
2017-12-10T08:27:41.672Z,75.60
2017-12-10T08:30:09.127Z,75.00
2017-12-10T08:32:36.583Z,75.10
2017-12-10T08:35:04.138Z,75.60
2017-12-10T08:37:32.369Z,75.10
2017-12-10T08:39:59.826Z,75.10
2017-12-10T08:42:27.283Z,74.50
2017-12-10T08:44:54.729Z,74.70
2017-12-10T08:47:22.187Z,74.90
2017-12-10T08:49:49.637Z,73.10
2017-12-10T08:52:17.097Z,71.80
2017-12-10T08:54:44.547Z,70.90
2017-12-10T08:57:12.010Z,72.60
2017-12-10T08:59:39.528Z,71.60
2017-12-10T09:02:07.758Z,71.70
2017-12-10T09:04:35.260Z,71.80
2017-12-10T09:07:02.815Z,71.50
2017-12-10T09:09:30.268Z,71.50
2017-12-10T09:11:57.764Z,72.90
2017-12-10T09:14:26.032Z,70.50
2017-12-10T09:16:53.556Z,70.40
2017-12-10T09:19:21.013Z,71.80
2017-12-10T09:21:48.484Z,71.40
2017-12-10T09:24:15.935Z,69.20
2017-12-10T09:26:43.400Z,71.00
2017-12-10T09:29:10.860Z,69.90
2017-12-10T09:31:38.308Z,67.80
2017-12-10T09:34:05.877Z,67.70
2017-12-10T09:36:33.328Z,69.40
2017-12-10T09:39:00.789Z,67.30
2017-12-10T09:41:28.249Z,65.40
2017-12-10T09:43:56.474Z,63.60
2017-12-10T09:46:23.919Z,62.80
2017-12-10T09:48:52.184Z,62.00
2017-12-10T09:51:19.636Z,58.90
2017-12-10T09:53:47.092Z,58.20
2017-12-10T09:56:14.540Z,56.20
2017-12-10T09:58:41.996Z,57.60
2017-12-10T10:01:10.221Z,54.00
2017-12-10T10:03:38.309Z,53.90
2017-12-10T10:06:05.749Z,53.70
2017-12-10T10:08:33.225Z,54.90
2017-12-10T10:11:00.777Z,56.70
2017-12-10T10:13:28.235Z,57.30
2017-12-10T10:15:55.700Z,56.40
2017-12-10T10:18:23.152Z,55.90
2017-12-10T10:20:50.769Z,55.80
2017-12-10T10:23:18.343Z,55.40
2017-12-10T10:25:45.885Z,55.80
2017-12-10T10:28:13.385Z,58.30
2017-12-10T10:30:40.892Z,59.80
2017-12-10T10:33:08.367Z,59.00
2017-12-10T10:35:35.848Z,60.30
2017-12-10T10:38:03.409Z,61.20
2017-12-10T10:40:30.928Z,62.20
2017-12-10T10:42:58.425Z,62.60
2017-12-10T10:45:25.889Z,62.80
2017-12-10T10:47:53.336Z,61.70
2017-12-10T10:50:20.936Z,61.50
2017-12-10T10:52:48.388Z,62.20
2017-12-10T10:55:16.693Z,62.70
2017-12-10T10:57:44.185Z,61.90
2017-12-10T11:00:11.645Z,62.80
2017-12-10T11:02:39.166Z,62.30
2017-12-10T11:05:06.667Z,62.70
2017-12-10T11:07:34.918Z,64.60
2017-12-10T11:10:02.403Z,64.70
2017-12-10T11:12:29.977Z,62.90
2017-12-10T11:14:57.452Z,63.30
2017-12-10T11:17:24.962Z,63.50
2017-12-10T11:19:52.502Z,62.90
2017-12-10T11:22:19.978Z,62.60
2017-12-10T11:24:47.436Z,61.40
2017-12-10T11:27:15.041Z,60.70
2017-12-10T11:29:42.532Z,58.90
2017-12-10T11:32:10.172Z,57.70
2017-12-10T11:34:37.723Z,58.20
2017-12-10T11:37:05.239Z,57.60
2017-12-10T11:39:32.742Z,57.50
2017-12-10T11:42:00.212Z,58.70
2017-12-10T11:44:27.661Z,59.10
2017-12-10T11:46:55.184Z,59.30
2017-12-10T11:49:23.432Z,60.50
2017-12-10T11:51:50.905Z,60.40
2017-12-10T11:54:19.245Z,61.30
2017-12-10T11:56:46.693Z,61.30
2017-12-10T11:59:14.215Z,61.80
2017-12-10T12:01:41.680Z,61.10
2017-12-10T12:04:09.202Z,61.80
2017-12-10T12:06:36.674Z,62.10
2017-12-10T12:09:04.908Z,61.80
2017-12-10T12:11:32.450Z,61.80
2017-12-10T12:13:59.946Z,61.70
2017-12-10T12:16:27.404Z,60.50
2017-12-10T12:18:54.971Z,60.40
2017-12-10T12:21:22.413Z,60.50
2017-12-10T12:23:49.931Z,59.80
2017-12-10T12:26:17.453Z,60.30
2017-12-10T12:28:44.914Z,60.50
2017-12-10T12:31:13.184Z,60.10
2017-12-10T12:33:41.457Z,59.70
2017-12-10T12:36:08.930Z,59.60
2017-12-10T12:38:36.436Z,60.20
2017-12-10T12:41:03.898Z,60.70
2017-12-10T12:43:31.372Z,60.70
2017-12-10T12:45:58.832Z,61.00
2017-12-10T12:48:26.284Z,61.20
2017-12-10T12:50:53.849Z,62.00
2017-12-10T12:53:21.304Z,62.10
2017-12-10T12:55:48.772Z,61.60
2017-12-10T12:58:16.220Z,62.30
2017-12-10T13:00:43.727Z,62.40
2017-12-10T13:03:11.229Z,62.30
2017-12-10T13:05:38.791Z,62.10
2017-12-10T13:08:06.244Z,62.60
2017-12-10T13:10:33.712Z,62.90
2017-12-10T13:13:01.197Z,62.40
2017-12-10T13:15:28.712Z,62.40
2017-12-10T13:17:56.269Z,62.60
2017-12-10T13:20:25.237Z,62.80
2017-12-10T13:22:52.741Z,62.80
2017-12-10T13:25:20.194Z,63.10
2017-12-10T13:27:47.648Z,62.70
2017-12-10T13:30:15.104Z,63.70
2017-12-10T13:32:42.560Z,62.90
2017-12-10T13:35:10.028Z,62.90
2017-12-10T13:37:38.312Z,61.90
2017-12-10T13:40:06.553Z,62.30
2017-12-10T13:42:34.112Z,62.30
2017-12-10T13:45:01.672Z,61.80
2017-12-10T13:47:29.125Z,61.90
2017-12-10T13:49:56.616Z,62.50
2017-12-10T13:52:24.896Z,61.90
2017-12-10T13:54:53.157Z,61.90
2017-12-10T13:57:21.378Z,61.90
2017-12-10T13:59:48.840Z,61.90
2017-12-10T14:02:16.294Z,61.50
2017-12-10T14:04:43.820Z,61.40
2017-12-10T14:07:11.370Z,62.20
2017-12-10T14:09:39.592Z,62.30
2017-12-10T14:12:07.045Z,62.30
2017-12-10T14:14:34.502Z,62.00
2017-12-10T14:17:01.984Z,61.80
2017-12-10T14:19:29.541Z,62.20
2017-12-10T14:21:56.992Z,62.50
2017-12-10T14:24:24.453Z,62.50
2017-12-10T14:26:51.912Z,61.90
2017-12-10T14:29:19.368Z,61.60
2017-12-10T14:31:46.924Z,62.10
2017-12-10T14:34:14.444Z,62.40
2017-12-10T14:36:41.939Z,62.70
2017-12-10T14:39:09.502Z,62.70
2017-12-10T14:41:36.962Z,62.60
2017-12-10T14:44:04.522Z,62.80
2017-12-10T14:46:31.977Z,62.60
2017-12-10T14:48:59.624Z,62.80
2017-12-10T14:51:27.081Z,63.40
2017-12-10T14:53:54.528Z,63.60
2017-12-10T14:56:21.992Z,62.90
2017-12-10T14:58:49.457Z,62.60
2017-12-10T15:01:16.925Z,62.60
2017-12-10T15:03:45.146Z,62.20
2017-12-10T15:06:12.600Z,62.30
2017-12-10T15:08:40.108Z,62.50
2017-12-10T15:11:07.656Z,62.80
2017-12-10T15:13:35.112Z,62.50
2017-12-10T15:16:02.569Z,62.00
2017-12-10T15:18:30.102Z,61.80
2017-12-10T15:20:58.292Z,62.90
2017-12-10T15:23:25.748Z,61.90
2017-12-10T15:25:53.205Z,62.00
2017-12-10T15:28:20.741Z,62.50
2017-12-10T15:30:48.231Z,62.20
2017-12-10T15:33:15.679Z,61.60
2017-12-10T15:35:43.137Z,63.10
2017-12-10T15:38:10.588Z,61.90
2017-12-10T15:40:38.036Z,62.00
2017-12-10T15:43:05.495Z,61.80
2017-12-10T15:45:32.984Z,61.40
2017-12-10T15:48:00.448Z,61.20
2017-12-10T15:50:27.992Z,61.40
2017-12-10T15:52:55.444Z,62.20
2017-12-10T15:55:22.897Z,61.00
2017-12-10T15:57:50.361Z,60.90
2017-12-10T16:00:17.813Z,61.40
2017-12-10T16:02:45.412Z,61.30
2017-12-10T16:05:13.654Z,60.80
2017-12-10T16:07:41.204Z,60.70
2017-12-10T16:10:08.656Z,61.50
2017-12-10T16:12:36.133Z,61.50
2017-12-10T16:15:03.681Z,61.20
2017-12-10T16:17:31.133Z,60.40
2017-12-10T16:19:58.692Z,60.90
2017-12-10T16:22:26.253Z,60.40
2017-12-10T16:24:54.708Z,60.80
2017-12-10T16:27:22.162Z,61.00
2017-12-10T16:29:49.620Z,60.40
2017-12-10T16:32:17.100Z,60.30
2017-12-10T16:34:44.595Z,61.00
2017-12-10T16:37:12.837Z,61.90
2017-12-10T16:39:40.408Z,61.00
2017-12-10T16:42:07.948Z,60.80
2017-12-10T16:44:35.516Z,60.80
2017-12-10T16:47:02.965Z,61.50
2017-12-10T16:49:30.424Z,61.80
2017-12-10T16:51:57.877Z,63.70
2017-12-10T16:54:25.336Z,65.70
2017-12-10T16:56:52.788Z,67.50
2017-12-10T16:59:20.313Z,69.20
2017-12-10T17:01:47.780Z,71.20
2017-12-10T17:04:15.253Z,72.10
2017-12-10T17:06:42.704Z,73.10
2017-12-10T17:09:10.161Z,74.80
2017-12-10T17:11:37.624Z,75.70
2017-12-10T17:14:05.092Z,76.80
2017-12-10T17:16:34.057Z,78.10
2017-12-10T17:19:01.545Z,78.10
2017-12-10T17:21:29.764Z,78.60
2017-12-10T17:24:02.178Z,78.60
2017-12-10T17:26:29.660Z,79.40
2017-12-10T17:28:57.116Z,79.70
2017-12-10T17:31:24.657Z,80.50
2017-12-10T17:33:52.942Z,80.10
2017-12-10T17:36:21.188Z,80.10
2017-12-10T17:38:48.665Z,80.00
2017-12-10T17:41:16.120Z,80.20
2017-12-10T17:43:45.096Z,80.70
2017-12-10T17:46:12.564Z,80.70
2017-12-10T17:48:40.021Z,80.80
2017-12-10T17:51:07.480Z,80.80
2017-12-10T17:53:34.940Z,81.50
2017-12-10T17:56:03.208Z,81.70
2017-12-10T17:58:30.647Z,80.90
2017-12-10T18:00:58.136Z,81.40
2017-12-10T18:03:25.693Z,82.20
2017-12-10T18:05:53.149Z,82.60
2017-12-10T18:08:20.667Z,82.70
2017-12-10T18:10:48.117Z,82.50
2017-12-10T18:13:15.614Z,82.40
2017-12-10T18:15:43.081Z,82.50
2017-12-10T18:18:10.540Z,82.20
2017-12-10T18:20:37.989Z,81.80
2017-12-10T18:23:06.964Z,82.40
2017-12-10T18:25:34.414Z,82.40
2017-12-10T18:28:01.955Z,82.40
2017-12-10T18:30:29.399Z,82.40
2017-12-10T18:32:56.908Z,82.80
2017-12-10T18:35:24.356Z,82.80
2017-12-10T18:37:51.951Z,82.50
2017-12-10T18:40:19.377Z,82.30
2017-12-10T18:42:47.613Z,82.60
2017-12-10T18:45:15.173Z,82.60
2017-12-10T18:47:42.645Z,82.80
2017-12-10T18:50:10.097Z,82.80
2017-12-10T18:52:37.549Z,81.70
2017-12-10T18:55:05.103Z,82.30
2017-12-10T18:57:32.544Z,83.50
2017-12-10T19:00:00.005Z,83.10
2017-12-10T19:02:27.461Z,83.20
2017-12-10T19:04:54.923Z,82.80
2017-12-10T19:07:22.421Z,82.80
2017-12-10T19:09:49.889Z,83.30
2017-12-10T19:12:17.336Z,83.10
2017-12-10T19:14:44.798Z,83.30
2017-12-10T19:17:13.760Z,82.50
2017-12-10T19:19:41.305Z,82.50
2017-12-10T19:22:08.812Z,82.60
2017-12-10T19:24:37.054Z,83.50
2017-12-10T19:27:04.536Z,83.50
2017-12-10T19:29:31.997Z,82.80
2017-12-10T19:31:59.453Z,82.90
2017-12-10T19:34:27.007Z,83.10
2017-12-10T19:36:54.561Z,82.80
2017-12-10T19:39:22.016Z,82.70
2017-12-10T19:41:49.764Z,83.20
2017-12-10T19:44:17.241Z,83.20
2017-12-10T19:46:44.696Z,83.90
2017-12-10T19:49:12.976Z,84.80
2017-12-10T19:51:41.209Z,84.10
2017-12-10T19:54:08.658Z,85.00
2017-12-10T19:56:36.109Z,84.30
2017-12-10T19:59:03.565Z,84.30
2017-12-10T20:01:31.021Z,85.00
2017-12-10T20:03:59.353Z,84.80
2017-12-10T20:06:26.812Z,85.70
2017-12-10T20:08:54.363Z,85.00
2017-12-10T20:11:21.825Z,85.00
2017-12-10T20:13:49.375Z,84.90
2017-12-10T20:16:16.898Z,84.80
2017-12-10T20:18:50.168Z,85.50
2017-12-10T20:21:18.393Z,85.30
2017-12-10T20:23:45.861Z,85.30
2017-12-10T20:26:13.316Z,85.70
2017-12-10T20:28:40.793Z,86.10
2017-12-10T20:31:09.018Z,86.30
2017-12-10T20:33:36.473Z,86.20
2017-12-10T20:36:03.968Z,86.00
2017-12-10T20:38:32.189Z,86.20
2017-12-10T20:40:59.639Z,86.30
2017-12-10T20:43:27.110Z,87.00
2017-12-10T20:45:54.604Z,87.40
2017-12-10T20:48:22.101Z,87.50
2017-12-10T20:50:50.338Z,87.30
2017-12-10T20:53:17.828Z,87.20
2017-12-10T20:55:46.050Z,87.60
2017-12-10T20:58:13.500Z,87.60
2017-12-10T21:00:40.963Z,88.30
2017-12-10T21:03:08.410Z,88.40
2017-12-10T21:05:35.868Z,88.40
2017-12-10T21:08:03.417Z,87.80
2017-12-10T21:10:30.908Z,87.80
2017-12-10T21:12:58.369Z,88.10
2017-12-10T21:15:26.195Z,87.90
2017-12-10T21:17:53.639Z,87.50
2017-12-10T21:20:21.148Z,87.70
2017-12-10T21:22:48.609Z,88.00
2017-12-10T21:25:16.126Z,87.80
2017-12-10T21:27:43.571Z,87.60
2017-12-10T21:30:11.044Z,88.10
2017-12-10T21:32:38.532Z,87.80
2017-12-10T21:35:06.757Z,88.70
2017-12-10T21:37:34.208Z,88.80
2017-12-10T21:40:01.725Z,88.50
2017-12-10T21:42:29.240Z,88.10
2017-12-10T21:44:56.713Z,88.20
2017-12-10T21:47:24.201Z,88.30
2017-12-10T21:49:51.653Z,88.70
2017-12-10T21:52:19.110Z,88.70
2017-12-10T21:54:46.579Z,88.40
2017-12-10T21:57:14.033Z,88.70
2017-12-10T21:59:41.493Z,88.20
2017-12-10T22:02:09.093Z,89.30
2017-12-10T22:04:36.541Z,89.00
2017-12-10T22:07:03.999Z,88.90
2017-12-10T22:09:31.511Z,89.00
2017-12-10T22:11:59.724Z,89.50
2017-12-10T22:14:27.172Z,89.60
2017-12-10T22:16:54.628Z,89.70
2017-12-10T22:19:22.872Z,89.20
2017-12-10T22:21:50.343Z,89.10
2017-12-10T22:24:17.793Z,88.60
2017-12-10T22:26:45.253Z,88.90
2017-12-10T22:29:12.707Z,88.90
2017-12-10T22:31:40.170Z,89.00
2017-12-10T22:34:08.391Z,89.30
2017-12-10T22:36:35.846Z,89.40
2017-12-10T22:39:03.303Z,89.40
2017-12-10T22:41:30.762Z,89.20
2017-12-10T22:43:58.221Z,89.20
2017-12-10T22:46:25.713Z,88.80
2017-12-10T22:48:53.268Z,88.90
2017-12-10T22:51:20.720Z,89.10
2017-12-10T22:53:49.088Z,88.80
2017-12-10T22:56:16.573Z,89.10
2017-12-10T22:58:44.252Z,89.90
2017-12-10T23:01:12.528Z,89.50
2017-12-10T23:03:40.753Z,89.30
2017-12-10T23:06:08.197Z,89.30
2017-12-10T23:08:35.789Z,89.00
2017-12-10T23:11:03.626Z,89.40
2017-12-10T23:16:31.567Z,88.80
2017-12-10T23:18:59.791Z,89.10
2017-12-10T23:21:27.240Z,89.20
2017-12-10T23:23:56.721Z,89.20
2017-12-10T23:26:24.175Z,89.00
2017-12-10T23:28:51.690Z,89.50
2017-12-10T23:31:19.148Z,89.50
2017-12-10T23:33:46.620Z,89.70
2017-12-10T23:36:14.876Z,89.60
2017-12-10T23:38:42.433Z,89.50
2017-12-10T23:41:10.659Z,89.60
2017-12-10T23:43:38.105Z,89.50
2017-12-10T23:46:05.563Z,89.50
2017-12-10T23:48:33.020Z,89.40
2017-12-10T23:51:00.536Z,89.20
2017-12-10T23:53:27.988Z,89.20
2017-12-10T23:55:55.683Z,89.30
2017-12-10T23:58:23.936Z,89.30
